NCAR-RAP Real-Time Weather Data

Output produced by METARs form (12 August 2020  18:41 UTC)
found at http://weather.rap.ucar.edu/surface/
 
KHJO 121753Z AUTO 28003KT 10SM CLR 29/13 A2992 RMK AO2 SLP132 T02940133 10294 20172 51008
KHJO 121653Z AUTO 34004KT 10SM CLR 28/13 A2991 RMK AO2 SLP129 T02780133
KHJO 121553Z AUTO 00000KT 10SM CLR 26/14 A2991 RMK AO2 SLP127 T02560139
KHJO 121453Z AUTO 32005KT 10SM CLR 23/14 A2990 RMK AO2 SLP124 T02280144 51013
KHJO 121353Z AUTO 00000KT 10SM CLR 19/15 A2988 RMK AO2 SLP119 T01890150 TSNO
KHJO 121253Z AUTO 00000KT 10SM CLR 18/15 A2987 RMK AO2 SLP115 T01830150 TSNO
KHJO 121153Z AUTO 25004KT 10SM CLR 20/15 A2986 RMK AO2 SLP111 T02000150 10283 20194 53006 TSNO
KHJO 121053Z AUTO 22003KT 10SM CLR 19/15 A2986 RMK AO2 SLP110 T01940150 TSNO
KHJO 120953Z AUTO 32005KT 10SM CLR 23/15 A2984 RMK AO2 SLP104 T02280150 TSNO
KHJO 120853Z AUTO 30007KT 10SM CLR 24/16 A2984 RMK AO2 SLP105 T02440156 50004
KHJO 120753Z AUTO 31006KT 10SM CLR 25/17 A2984 RMK AO2 SLP106 T02500167 403830172
KHJO 120653Z AUTO 32009KT 10SM CLR 27/16 A2984 RMK AO2 SLP104 T02670161
KHJO 120553Z AUTO 33009KT 10SM CLR 28/16 A2983 RMK AO2 SLP101 T02830161 10378 20283 51017
KHJO 120453Z AUTO 32010KT 10SM SCT120 30/16 A2983 RMK AO2 SLP100 T03000161
KHJO 120353Z AUTO 31010KT 10SM BKN110 32/16 A2980 RMK AO2 SLP090 T03220156
KHJO 120253Z AUTO 31005KT 10SM BKN110 34/15 A2978 RMK AO2 SLP083 T03390150 55003
KHJO 120153Z AUTO 35005KT 10SM BKN110 36/14 A2976 RMK AO2 SLP079 T03610144
KHJO 120053Z AUTO VRB05KT 10SM BKN100 37/14 A2978 RMK AO2 SLP084 T03720144
KHJO 112353Z AUTO 03005KT 10SM BKN110 38/13 A2979 RMK AO2 SLP086 T03780133 10383 20306 56021